Time;durP1;ratioP1;P1;durP2;ratioP2;P2;SDS_P1;SDS_P2;PMS_P1;PMS_P2;Temp;Humidity;BMP_temperature;BMP_pressure;BME280_temperature;BME280_humidity;BME280_pressure;Samples;Min_cycle;Max_cycle;Signal;HPM_P1;HPM_P2
2023/05/21 00:00:01;;;;;;;4.80;3.53;;;;;;;-146.25;92.24;52072.19;2095143;28;32267;-70
2023/05/21 00:01:15;;;;;;;5.85;3.25;;;;;;;-146.25;91.86;52094.47;2096265;28;20049;-70
2023/05/21 00:02:17;;;;;;;4.88;3.25;;;;;;;-146.25;90.89;52108.66;2095688;28;34767;-70
2023/05/21 00:03:19;;;;;;;4.93;3.05;;;;;;;-146.25;91.67;52108.66;2088665;28;20045;-70
2023/05/21 00:04:21;;;;;;;4.05;3.20;;;;;;;-146.25;92.00;52068.13;2086796;28;36053;-69
2023/05/21 00:05:23;;;;;;;4.57;3.30;;;;;;;-146.25;91.38;52102.59;2095823;28;34190;-70
2023/05/21 00:06:26;;;;;;;4.53;2.95;;;;;;;-146.25;91.56;52086.38;2097952;28;20045;-70
2023/05/21 00:07:28;;;;;;;4.20;3.08;;;;;;;-146.25;91.06;52088.41;2097662;28;35688;-70
2023/05/21 00:08:29;;;;;;;5.22;3.30;;;;;;;-146.25;90.92;52094.47;2097425;28;32844;-70
2023/05/21 00:09:31;;;;;;;4.38;3.40;;;;;;;-146.25;90.74;52088.41;2098106;28;30573;-69
2023/05/21 00:10:33;;;;;;;8.52;3.65;;;;;;;-146.25;91.27;52053.94;2097308;28;36144;-70
2023/05/21 00:11:35;;;;;;;6.10;3.47;;;;;;;-146.25;90.63;52102.59;2098574;28;20041;-70
2023/05/21 00:12:37;;;;;;;4.88;3.40;;;;;;;-146.25;90.77;52088.41;2097454;28;32307;-70
2023/05/21 00:13:39;;;;;;;4.57;3.65;;;;;;;-146.25;90.56;52074.22;2097637;28;33518;-70
2023/05/21 00:14:40;;;;;;;5.28;3.10;;;;;;;-146.25;90.21;52092.44;2097045;28;34519;-70
2023/05/21 00:15:42;;;;;;;4.65;2.97;;;;;;;-146.25;90.43;52088.41;2096874;28;38810;-70
2023/05/21 00:16:45;;;;;;;4.82;3.55;;;;;;;-146.25;90.56;52110.69;2097411;28;20918;-70
2023/05/21 00:17:47;;;;;;;7.53;3.42;;;;;;;-146.25;90.42;52122.88;2097592;28;36788;-69
2023/05/21 00:18:50;;;;;;;5.78;3.25;;;;;;;-146.25;90.24;52076.22;2097462;28;26831;-70
2023/05/21 00:19:51;;;;;;;3.90;3.20;;;;;;;-146.25;89.74;52098.53;2097562;28;20056;-70
2023/05/21 00:20:53;;;;;;;5.60;3.05;;;;;;;-146.25;89.91;52084.34;2096406;28;34508;-70
2023/05/21 00:21:56;;;;;;;4.80;3.35;;;;;;;-146.25;90.20;52076.22;2097582;28;35907;-70
2023/05/21 00:23:01;;;;;;;5.88;3.35;;;;;;;-146.25;89.87;52074.22;2096553;28;32802;-69
2023/05/21 00:24:04;;;;;;;4.38;2.95;;;;;;;-146.25;89.43;52108.66;2096971;28;36061;-70
2023/05/21 00:25:06;;;;;;;6.25;3.38;;;;;;;-146.25;90.11;52068.13;2097319;28;32802;-70
2023/05/21 00:26:09;;;;;;;6.15;3.53;;;;;;;-146.25;89.93;52088.41;2097526;28;33884;-70
2023/05/21 00:27:12;;;;;;;5.53;3.17;;;;;;;-146.25;89.71;52092.44;2097103;28;38649;-70
2023/05/21 00:28:14;;;;;;;4.57;3.40;;;;;;;-146.25;90.02;52068.13;2097925;28;25130;-70
2023/05/21 00:29:15;;;;;;;5.55;3.70;;;;;;;-146.25;89.98;52122.88;2096825;28;26758;-70
2023/05/21 00:30:17;;;;;;;4.30;3.15;;;;;;;-146.25;89.48;52088.41;2089381;28;20037;-69
2023/05/21 00:31:19;;;;;;;6.70;3.50;;;;;;;-146.25;90.10;52072.19;2096648;28;27622;-70
2023/05/21 00:32:21;;;;;;;5.85;3.75;;;;;;;-146.25;89.46;52102.59;2097330;28;20228;-70
2023/05/21 00:33:25;;;;;;;4.78;3.28;;;;;;;-146.25;88.97;52082.31;2096943;28;29741;-70
2023/05/21 00:34:28;;;;;;;8.57;3.70;;;;;;;-146.25;89.30;52082.31;2097776;28;23184;-70
2023/05/21 00:35:30;;;;;;;6.25;3.60;;;;;;;-146.25;89.16;52133.00;2097003;28;31373;-70
2023/05/21 00:36:35;;;;;;;5.68;3.75;;;;;;;-146.25;89.28;52084.34;2097468;28;20153;-70
2023/05/21 00:37:36;;;;;;;5.50;3.33;;;;;;;-146.25;89.37;52128.94;2088453;28;32031;-70
2023/05/21 00:38:42;;;;;;;5.40;3.58;;;;;;;-146.25;89.04;52096.50;2097728;28;20033;-70
2023/05/21 00:39:44;;;;;;;5.57;3.95;;;;;;;-146.25;88.71;52092.44;2097728;28;20037;-70
2023/05/21 00:40:47;;;;;;;9.15;4.00;;;;;;;-146.25;89.40;52070.16;2097996;28;29044;-70
2023/05/21 00:41:49;;;;;;;5.55;3.53;;;;;;;-146.25;88.92;52108.66;2096776;28;20057;-70
2023/05/21 00:42:52;;;;;;;8.52;3.60;;;;;;;-146.25;88.58;52128.94;2096819;28;27358;-70
2023/05/21 00:43:54;;;;;;;5.82;3.35;;;;;;;-146.25;88.40;52084.34;2096581;28;22277;-69
2023/05/21 00:44:56;;;;;;;7.10;4.10;;;;;;;-146.25;88.55;52100.56;2089334;28;20925;-70
2023/05/21 00:46:01;;;;;;;8.25;4.18;;;;;;;-146.25;88.31;52098.53;2097060;28;20037;-70
2023/05/21 00:47:05;;;;;;;6.25;4.05;;;;;;;-146.25;88.42;52108.66;2098356;28;25954;-70
2023/05/21 00:48:07;;;;;;;7.47;4.10;;;;;;;-146.25;87.89;52122.88;2097761;28;20841;-70
2023/05/21 00:49:13;;;;;;;4.78;3.67;;;;;;;-146.25;87.66;52096.50;2096966;28;21683;-70
2023/05/21 00:50:15;;;;;;;5.78;3.55;;;;;;;-146.25;87.28;52118.81;2080738;28;20876;-70
2023/05/21 00:51:20;;;;;;;6.22;4.20;;;;;;;-146.25;87.37;52092.44;2080792;28;30814;-69
2023/05/21 00:52:25;;;;;;;5.22;4.40;;;;;;;-146.25;87.75;52092.44;2097006;28;21094;-70
2023/05/21 00:53:28;;;;;;;8.07;4.05;;;;;;;-146.25;86.94;52118.81;2088925;28;20176;-70
2023/05/21 00:54:32;;;;;;;6.40;3.78;;;;;;;-146.25;87.12;52112.72;2080886;28;28660;-70
2023/05/21 00:55:36;;;;;;;5.65;3.63;;;;;;;-146.25;86.98;52096.50;2096895;28;29685;-70
2023/05/21 00:56:38;;;;;;;6.63;3.53;;;;;;;-146.25;86.98;52106.66;2088188;28;25058;-70
2023/05/21 00:57:44;;;;;;;6.28;3.47;;;;;;;-146.25;87.45;52076.22;2088885;28;27520;-70
2023/05/21 00:58:47;;;;;;;5.53;3.58;;;;;;;-146.25;87.19;52039.75;2088793;28;20064;-70
2023/05/21 00:59:52;;;;;;;6.18;3.80;;;;;;;-146.25;87.31;52080.28;2088922;28;23548;-70
2023/05/21 01:00:57;;;;;;;6.15;3.40;;;;;;;-146.25;87.34;52102.59;2089022;28;24938;-70
2023/05/21 01:02:02;;;;;;;7.43;4.03;;;;;;;-146.25;87.14;52114.75;2081784;28;25255;-70
2023/05/21 01:03:05;;;;;;;6.90;3.35;;;;;;;-146.25;87.93;52088.41;2097079;28;24586;-70
2023/05/21 01:04:07;;;;;;;7.07;3.60;;;;;;;-146.25;87.79;52098.53;2097130;28;20156;-70
2023/05/21 01:05:09;;;;;;;8.02;4.00;;;;;;;-146.25;87.88;52092.44;2089466;28;20454;-70
2023/05/21 01:06:12;;;;;;;5.28;3.60;;;;;;;-146.25;87.68;52082.31;2088383;28;24949;-70
2023/05/21 01:07:14;;;;;;;4.85;3.10;;;;;;;-146.25;87.99;52100.56;2097090;28;20041;-70
2023/05/21 01:08:16;;;;;;;4.82;3.47;;;;;;;-146.25;87.62;52122.88;2097170;28;26319;-70
2023/05/21 01:09:21;;;;;;;6.15;3.22;;;;;;;-146.25;87.88;52084.34;2097898;28;27840;-70
2023/05/21 01:10:25;;;;;;;6.40;3.70;;;;;;;-146.25;87.88;52104.63;2096731;28;24106;-70
2023/05/21 01:11:44;;;;;;;6.65;3.40;;;;;;;-146.25;87.84;52098.53;2080758;28;20259;-69
2023/05/21 01:12:47;;;;;;;5.68;3.72;;;;;;;-146.25;88.07;52128.94;2077352;28;25257;-69
2023/05/21 01:13:49;;;;;;;7.63;3.75;;;;;;;-146.25;87.77;52098.53;2081744;28;28677;-70
2023/05/21 01:14:52;;;;;;;5.65;3.22;;;;;;;-146.25;88.02;52076.22;2089176;28;20076;-70
2023/05/21 01:15:58;;;;;;;7.82;3.97;;;;;;;-146.25;88.18;52102.59;2088787;28;20160;-70
2023/05/21 01:17:01;;;;;;;8.30;3.38;;;;;;;-146.25;87.89;52116.78;2096415;28;27030;-70
2023/05/21 01:18:03;;;;;;;5.97;3.28;;;;;;;-146.25;88.14;52096.50;2097343;28;20033;-70
2023/05/21 01:19:08;;;;;;;6.70;3.28;;;;;;;-146.25;87.86;52064.06;2088620;28;27980;-70
2023/05/21 01:20:11;;;;;;;4.97;3.33;;;;;;;-146.25;88.17;52141.13;2088364;28;20178;-70
2023/05/21 01:21:17;;;;;;;5.93;3.22;;;;;;;-146.25;88.23;52047.84;2072939;28;20883;-70
2023/05/21 01:22:21;;;;;;;6.50;3.55;;;;;;;-146.25;88.44;52108.66;2073918;28;22182;-70
2023/05/21 01:23:26;;;;;;;4.82;3.40;;;;;;;-146.25;87.91;52084.34;2073055;28;20201;-70
2023/05/21 01:24:27;;;;;;;5.20;3.33;;;;;;;-146.25;88.51;52133.00;2081891;28;20054;-70
2023/05/21 01:25:29;;;;;;;6.00;3.20;;;;;;;-146.25;88.29;52100.56;2088822;28;23415;-70
2023/05/21 01:26:32;;;;;;;5.15;3.50;;;;;;;-146.25;87.88;52068.13;2088626;28;20163;-70
2023/05/21 01:27:36;;;;;;;5.63;3.67;;;;;;;-146.25;88.43;52090.44;2096543;28;24593;-70
2023/05/21 01:28:38;;;;;;;6.57;3.70;;;;;;;-146.25;88.38;52096.50;2097581;28;20494;-70
2023/05/21 01:29:40;;;;;;;6.20;3.25;;;;;;;-146.25;88.45;52078.25;2096956;28;20044;-69
2023/05/21 01:30:42;;;;;;;6.28;3.25;;;;;;;-146.25;87.91;52092.44;2097353;28;20144;-69
2023/05/21 01:32:15;;;;;;;7.20;3.63;;;;;;;-146.25;88.36;52106.66;2096055;28;27000;-70
2023/05/21 01:33:45;;;;;;;5.88;3.65;;;;;;;-146.25;88.64;52104.63;2097637;28;20180;-70
2023/05/21 01:35:01;;;;;;;5.65;3.10;;;;;;;-146.25;88.55;52116.78;2088610;28;20128;-70
2023/05/21 01:36:10;;;;;;;10.25;3.28;;;;;;;-146.25;88.58;52102.59;2086148;28;20123;-69
2023/05/21 01:37:26;;;;;;;5.60;3.20;;;;;;;-146.25;88.76;52120.84;2097282;28;20106;-70
2023/05/21 01:38:41;;;;;;;7.93;3.05;;;;;;;-146.25;88.39;52112.72;2088437;28;23543;-70
2023/05/21 01:39:51;;;;;;;5.03;3.28;;;;;;;-146.25;88.48;52116.78;2093764;28;33682;-70
2023/05/21 01:41:03;;;;;;;7.95;3.40;;;;;;;-146.25;88.32;52104.63;2088078;28;29030;-70
2023/05/21 01:42:09;;;;;;;7.57;3.65;;;;;;;-146.25;88.36;52102.59;2090758;28;28873;-70
2023/05/21 01:43:13;;;;;;;6.18;3.13;;;;;;;-146.25;88.57;52120.84;2088278;28;26424;-70
2023/05/21 01:44:17;;;;;;;5.90;3.00;;;;;;;-146.25;88.08;52100.56;2089494;28;20147;-71
2023/05/21 01:45:22;;;;;;;6.13;3.20;;;;;;;-146.25;88.68;52108.66;2088345;28;33379;-70
2023/05/21 01:46:31;;;;;;;6.32;3.45;;;;;;;-146.25;88.31;52088.41;2081832;28;20042;-70
2023/05/21 01:47:35;;;;;;;6.18;3.30;;;;;;;-146.25;88.79;52086.38;2090286;28;27871;-70
2023/05/21 01:48:37;;;;;;;6.53;3.35;;;;;;;-146.25;88.89;52082.31;2096216;28;32552;-70
2023/05/21 01:49:40;;;;;;;6.63;2.97;;;;;;;-146.25;89.17;52106.66;2096904;28;20052;-70
2023/05/21 01:50:44;;;;;;;10.10;3.20;;;;;;;-146.25;88.84;52116.78;2095960;28;33415;-70
2023/05/21 01:51:47;;;;;;;9.07;3.85;;;;;;;-146.25;88.94;52108.66;2088601;28;27608;-70
2023/05/21 01:52:55;;;;;;;8.05;3.00;;;;;;;-146.25;88.59;52096.50;2079613;28;33295;-69
2023/05/21 01:53:57;;;;;;;7.53;3.50;;;;;;;-146.25;88.71;52078.25;2082309;28;26797;-70
2023/05/21 01:55:01;;;;;;;6.15;3.17;;;;;;;-146.25;88.42;52118.81;2096073;28;30782;-69
2023/05/21 01:56:06;;;;;;;5.20;2.95;;;;;;;-146.25;88.68;52108.66;2096652;28;29279;-70
2023/05/21 01:57:08;;;;;;;8.85;3.20;;;;;;;-146.25;88.55;52096.50;2089411;28;23570;-70
2023/05/21 01:58:10;;;;;;;6.47;3.13;;;;;;;-146.25;89.16;52088.41;2088700;28;20040;-70
2023/05/21 01:59:12;;;;;;;9.50;3.53;;;;;;;-146.25;88.94;52080.28;2080355;28;20891;-70
2023/05/21 02:00:14;;;;;;;5.38;3.03;;;;;;;-146.25;88.70;52098.53;2079936;28;20483;-70
2023/05/21 02:01:16;;;;;;;6.65;3.10;;;;;;;-146.25;88.68;52078.25;2087667;28;28000;-70
2023/05/21 02:02:18;;;;;;;6.30;3.53;;;;;;;-146.25;88.76;52096.50;2097006;28;20743;-70
2023/05/21 02:03:20;;;;;;;4.20;2.85;;;;;;;-146.25;88.50;52074.22;2096101;28;28716;-70
2023/05/21 02:04:22;;;;;;;4.95;2.90;;;;;;;-146.25;88.50;52096.50;2096155;28;35817;-70
2023/05/21 02:05:25;;;;;;;7.00;3.20;;;;;;;-146.25;88.54;52084.34;2096818;28;20083;-70
2023/05/21 02:06:26;;;;;;;6.20;2.92;;;;;;;-146.25;88.99;52096.50;2097029;28;30922;-70
2023/05/21 02:07:31;;;;;;;6.93;3.17;;;;;;;-146.25;88.66;52064.06;2096364;28;20292;-70
2023/05/21 02:08:34;;;;;;;5.55;2.97;;;;;;;-146.25;89.04;52151.25;2096562;28;20060;-70
2023/05/21 02:09:36;;;;;;;7.82;2.83;;;;;;;-146.25;88.61;52118.81;2096724;28;20114;-70
2023/05/21 02:10:40;;;;;;;4.07;3.00;;;;;;;-146.25;89.20;52098.53;2096430;28;20068;-70
2023/05/21 02:11:43;;;;;;;4.32;3.22;;;;;;;-146.25;89.07;52070.16;2096931;28;20151;-70
2023/05/21 02:12:45;;;;;;;5.30;2.92;;;;;;;-146.25;88.99;52068.13;2097076;28;20118;-70
2023/05/21 02:13:47;;;;;;;6.10;2.90;;;;;;;-146.25;88.54;52114.75;2096611;28;20834;-70
2023/05/21 02:14:49;;;;;;;6.38;2.95;;;;;;;-146.25;89.09;52116.78;2096736;28;26374;-70
2023/05/21 02:15:53;;;;;;;8.68;3.20;;;;;;;-146.25;89.45;52088.41;2097382;28;20049;-71
2023/05/21 02:16:57;;;;;;;11.95;3.30;;;;;;;-146.25;88.92;52106.66;2096618;28;20830;-70
2023/05/21 02:18:02;;;;;;;5.63;3.13;;;;;;;-146.25;88.95;52070.16;2096563;28;21070;-70
2023/05/21 02:19:05;;;;;;;6.15;2.55;;;;;;;-146.25;89.04;52096.50;2089379;28;24341;-70
2023/05/21 02:20:10;;;;;;;7.03;3.03;;;;;;;-146.25;88.89;52102.59;2089527;28;20057;-70
2023/05/21 02:21:12;;;;;;;7.68;3.40;;;;;;;-146.25;89.36;52120.84;2089103;28;20038;-70
2023/05/21 02:22:15;;;;;;;5.53;3.20;;;;;;;-146.25;89.20;52126.91;2088916;28;20105;-70
2023/05/21 02:23:16;;;;;;;6.50;2.70;;;;;;;-146.25;89.13;52096.50;2096339;28;25776;-70
2023/05/21 02:24:18;;;;;;;5.38;2.90;;;;;;;-146.25;89.20;52106.66;2097624;28;20093;-70
2023/05/21 02:25:20;;;;;;;9.18;3.55;;;;;;;-146.25;89.04;52120.84;2096492;28;20146;-70
2023/05/21 02:26:23;;;;;;;5.75;3.33;;;;;;;-146.25;88.97;52108.66;2088654;28;20922;-70
2023/05/21 02:27:25;;;;;;;7.93;3.47;;;;;;;-146.25;89.41;52086.38;2096323;28;25921;-70
2023/05/21 02:28:29;;;;;;;8.75;3.47;;;;;;;-146.25;89.19;52100.56;2096688;28;20037;-70
2023/05/21 02:29:32;;;;;;;5.07;2.92;;;;;;;-146.25;89.15;52096.50;2096672;28;20045;-70
2023/05/21 02:30:33;;;;;;;6.07;3.05;;;;;;;-146.25;89.58;52114.75;2096460;28;23503;-70
2023/05/21 02:31:35;;;;;;;7.10;2.85;;;;;;;-146.25;89.04;52133.00;2096517;28;20124;-70
2023/05/21 02:32:41;;;;;;;4.88;2.58;;;;;;;-146.25;89.89;52096.50;2096814;28;20037;-70
2023/05/21 02:33:43;;;;;;;5.90;3.30;;;;;;;-146.25;89.64;52114.75;2096333;28;20029;-70
2023/05/21 02:34:46;;;;;;;6.68;3.25;;;;;;;-146.25;89.64;52096.50;2095702;28;31872;-70
2023/05/21 02:35:47;;;;;;;6.95;3.17;;;;;;;-146.25;89.87;52092.44;2088049;28;28653;-70
2023/05/21 02:36:53;;;;;;;5.20;3.08;;;;;;;-146.25;89.95;52051.91;2079639;28;29649;-70
2023/05/21 02:37:57;;;;;;;8.65;3.45;;;;;;;-146.25;90.18;52060.00;2089310;28;20042;-70
2023/05/21 02:39:00;;;;;;;4.95;2.80;;;;;;;-146.25;90.56;52102.59;2089481;28;20157;-70
2023/05/21 02:40:07;;;;;;;8.07;3.08;;;;;;;-146.25;90.12;52116.78;2088893;28;20072;-69
2023/05/21 02:41:10;;;;;;;8.00;3.47;;;;;;;-146.25;89.79;52100.56;2089035;28;20041;-69
2023/05/21 02:42:13;;;;;;;8.73;3.10;;;;;;;-146.25;90.20;52094.47;2089712;28;20052;-69
2023/05/21 02:43:14;;;;;;;5.95;2.97;;;;;;;-146.25;89.95;52102.59;2087768;28;32563;-70
2023/05/21 02:44:19;;;;;;;8.00;3.08;;;;;;;-146.25;90.30;52110.69;2096510;28;20045;-70
2023/05/21 02:45:21;;;;;;;5.38;2.80;;;;;;;-146.25;89.86;52104.63;2096118;28;20163;-70
2023/05/21 02:46:23;;;;;;;7.50;3.17;;;;;;;-146.25;89.66;52106.66;2087682;28;20045;-70
2023/05/21 02:47:26;;;;;;;5.93;2.55;;;;;;;-146.25;90.23;52118.81;2096041;28;20052;-69
2023/05/21 02:48:28;;;;;;;6.05;2.80;;;;;;;-146.25;89.63;52139.09;2087940;28;20072;-70
2023/05/21 02:49:29;;;;;;;7.82;3.33;;;;;;;-146.25;89.86;52104.63;2088004;28;20941;-69
2023/05/21 02:50:31;;;;;;;7.78;3.28;;;;;;;-146.25;89.69;52128.94;2079587;28;20041;-70
2023/05/21 02:51:33;;;;;;;6.63;2.80;;;;;;;-146.25;89.82;52104.63;2080149;28;20073;-69
2023/05/21 02:52:35;;;;;;;6.22;2.78;;;;;;;-146.25;89.90;52108.66;2095979;28;23241;-69
2023/05/21 02:53:38;;;;;;;6.85;2.78;;;;;;;-146.25;89.87;52094.47;2097001;28;20505;-70
2023/05/21 02:54:42;;;;;;;5.53;2.80;;;;;;;-146.25;89.87;52147.19;2095760;28;30401;-70
2023/05/21 02:55:43;;;;;;;6.45;3.08;;;;;;;-146.25;90.10;52102.59;2096363;28;20044;-70
2023/05/21 02:56:47;;;;;;;4.45;2.80;;;;;;;-146.25;89.52;52094.47;2088194;28;20054;-72
2023/05/21 02:57:49;;;;;;;8.43;3.22;;;;;;;-146.25;89.62;52126.91;2088344;28;20033;-69
2023/05/21 02:58:53;;;;;;;6.13;2.80;;;;;;;-146.25;89.71;52116.78;2096151;28;20041;-69
2023/05/21 02:59:55;;;;;;;6.43;3.10;;;;;;;-146.25;89.70;52098.53;2080065;28;20769;-72
2023/05/21 03:00:59;;;;;;;7.80;3.17;;;;;;;-146.25;90.15;52124.91;2088678;28;20042;-72
2023/05/21 03:02:02;;;;;;;8.48;2.70;;;;;;;-146.25;89.60;52094.47;2096434;28;20045;-69
2023/05/21 03:03:04;;;;;;;5.20;3.00;;;;;;;-146.25;89.84;52110.69;2096170;28;20095;-72
2023/05/21 03:04:06;;;;;;;5.15;2.78;;;;;;;-146.25;89.71;52155.31;2088444;28;20135;-69
2023/05/21 03:05:08;;;;;;;6.97;2.63;;;;;;;-146.25;90.35;52116.78;2079267;28;20985;-70
2023/05/21 03:06:12;;;;;;;6.22;2.83;;;;;;;-146.25;89.91;52068.13;2088590;28;20045;-69
2023/05/21 03:07:17;;;;;;;6.35;2.83;;;;;;;-146.25;90.25;52147.19;2095718;28;29794;-72
2023/05/21 03:08:20;;;;;;;7.75;2.60;;;;;;;-146.25;89.84;52153.28;2088562;28;20045;-69
2023/05/21 03:09:23;;;;;;;5.55;2.50;;;;;;;-146.25;89.95;52122.88;2096287;28;20196;-70
2023/05/21 03:10:24;;;;;;;5.95;2.78;;;;;;;-146.25;89.82;52116.78;2096126;28;21396;-70
2023/05/21 03:11:26;;;;;;;5.78;2.85;;;;;;;-146.25;89.94;52114.75;2087780;28;20049;-70
2023/05/21 03:12:28;;;;;;;6.00;2.88;;;;;;;-146.25;89.69;52135.03;2095972;28;29930;-70
2023/05/21 03:13:30;;;;;;;7.93;3.60;;;;;;;-146.25;89.88;52124.91;2096780;28;20040;-70
2023/05/21 03:14:32;;;;;;;7.13;2.92;;;;;;;-146.25;89.91;52108.66;2096783;28;20857;-70
2023/05/21 03:15:37;;;;;;;6.35;2.53;;;;;;;-146.25;90.05;52106.66;2095431;28;35593;-68
2023/05/21 03:16:40;;;;;;;6.72;3.35;;;;;;;-146.25;90.09;52080.28;2096612;28;21173;-70
2023/05/21 03:17:44;;;;;;;6.88;2.80;;;;;;;-146.25;90.00;52108.66;2095950;28;20037;-70
2023/05/21 03:18:46;;;;;;;5.45;2.38;;;;;;;-146.25;90.23;52066.09;2096004;28;31203;-69
2023/05/21 03:19:48;;;;;;;4.63;2.42;;;;;;;-146.25;90.14;52124.91;2095959;28;20044;-69
2023/05/21 03:20:50;;;;;;;6.13;2.65;;;;;;;-146.25;89.89;52102.59;2095872;28;20045;-70
2023/05/21 03:21:53;;;;;;;8.50;3.15;;;;;;;-146.25;89.97;52130.97;2096370;28;20126;-69
2023/05/21 03:22:55;;;;;;;8.18;2.50;;;;;;;-146.25;89.85;52072.19;2087484;28;28478;-71
2023/05/21 03:23:57;;;;;;;4.32;2.70;;;;;;;-146.25;89.75;52094.47;2087619;28;20213;-71
2023/05/21 03:25:00;;;;;;;7.22;2.42;;;;;;;-146.25;89.82;52155.31;2096159;28;20033;-71
2023/05/21 03:26:05;;;;;;;7.78;2.42;;;;;;;-146.25;89.79;52116.78;2096198;28;20053;-71
2023/05/21 03:27:07;;;;;;;6.93;3.15;;;;;;;-146.25;89.74;52102.59;2087720;28;20561;-71
2023/05/21 03:28:09;;;;;;;6.55;2.75;;;;;;;-146.25;89.78;52120.84;2079537;28;20053;-71
2023/05/21 03:29:20;;;;;;;7.68;2.47;;;;;;;-146.25;89.50;52106.66;2082299;28;20034;-71
2023/05/21 03:30:22;;;;;;;6.28;2.63;;;;;;;-146.25;89.71;52133.00;2095310;28;35361;-71
2023/05/21 03:31:56;;;;;;;5.75;2.33;;;;;;;-146.25;89.92;52100.56;2062468;28;20042;-71
2023/05/21 03:33:02;;;;;;;5.43;2.70;;;;;;;-146.25;89.87;52116.78;2062650;28;20039;-71
2023/05/21 03:34:04;;;;;;;5.18;2.70;;;;;;;-146.25;90.10;52106.66;2095983;28;20029;-71
2023/05/21 03:35:07;;;;;;;5.80;2.53;;;;;;;-146.25;90.05;52086.38;2088305;28;20088;-71
2023/05/21 03:36:08;;;;;;;7.20;2.85;;;;;;;-146.25;90.13;52110.69;2096564;28;20946;-71
2023/05/21 03:37:11;;;;;;;6.57;2.38;;;;;;;-146.25;89.89;52088.41;2095388;28;20207;-71
2023/05/21 03:38:14;;;;;;;6.93;2.30;;;;;;;-146.25;90.04;52137.06;2088114;28;24084;-71
2023/05/21 03:39:15;;;;;;;3.85;2.35;;;;;;;-146.25;90.08;52112.72;2088312;28;24819;-71
2023/05/21 03:40:17;;;;;;;5.35;2.70;;;;;;;-146.25;90.02;52098.53;2079721;28;20050;-71
2023/05/21 03:41:20;;;;;;;4.82;2.38;;;;;;;-146.25;89.85;52094.47;2079812;28;20053;-71
2023/05/21 03:42:26;;;;;;;8.05;2.65;;;;;;;-146.25;89.83;52088.41;2088327;28;20050;-71
2023/05/21 03:43:34;;;;;;;5.97;2.42;;;;;;;-146.25;90.02;52147.19;2087855;28;20042;-71
2023/05/21 03:44:36;;;;;;;5.32;2.30;;;;;;;-146.25;90.00;52155.31;2088559;28;20045;-71
2023/05/21 03:45:54;;;;;;;6.15;2.75;;;;;;;-146.25;89.66;52114.75;2090137;28;20038;-71
2023/05/21 03:47:19;;;;;;;5.50;2.53;;;;;;;-146.25;89.74;52110.69;2090770;28;20179;-71
2023/05/21 03:48:23;;;;;;;7.80;2.60;;;;;;;-146.25;89.54;52149.22;2087217;28;20914;-71
2023/05/21 03:49:25;;;;;;;5.68;2.53;;;;;;;-146.25;89.58;52102.59;2087011;28;20045;-71
2023/05/21 03:50:32;;;;;;;5.20;2.70;;;;;;;-146.25;89.58;52120.84;2088779;28;20046;-71
2023/05/21 03:51:34;;;;;;;5.22;2.30;;;;;;;-146.25;89.58;52106.66;2096141;28;20064;-71
2023/05/21 03:52:35;;;;;;;6.50;2.33;;;;;;;-146.25;89.32;52126.91;2096263;28;20090;-71
2023/05/21 03:53:37;;;;;;;7.35;2.33;;;;;;;-146.25;89.38;52114.75;2087852;28;20060;-71
2023/05/21 03:54:40;;;;;;;6.88;2.50;;;;;;;-146.25;89.25;52141.13;2079468;28;20042;-71
2023/05/21 03:55:43;;;;;;;4.30;1.88;;;;;;;-146.25;89.76;52096.50;2079410;28;20049;-71
2023/05/21 03:56:45;;;;;;;5.68;2.50;;;;;;;-146.25;89.51;52110.69;2071297;28;20900;-71
2023/05/21 03:57:46;;;;;;;4.38;2.20;;;;;;;-146.25;89.38;52143.13;2087670;28;20035;-71
2023/05/21 03:58:49;;;;;;;8.40;2.30;;;;;;;-146.25;89.28;52124.91;2079930;28;20173;-71
2023/05/21 03:59:51;;;;;;;6.10;2.33;;;;;;;-146.25;88.99;52133.00;2087799;28;20042;-71
2023/05/21 04:00:55;;;;;;;5.53;2.28;;;;;;;-146.25;89.27;52090.44;2088002;28;21032;-71
2023/05/21 04:01:57;;;;;;;5.75;2.15;;;;;;;-146.25;88.99;52141.13;2080299;28;20950;-71
2023/05/21 04:02:59;;;;;;;6.10;2.20;;;;;;;-146.25;88.97;52141.13;2096054;28;26234;-71
2023/05/21 04:04:01;;;;;;;5.32;2.40;;;;;;;-146.25;88.41;52092.44;2096292;28;20037;-71
2023/05/21 04:05:03;;;;;;;5.30;2.35;;;;;;;-146.25;88.63;52133.00;2096247;28;20167;-71
2023/05/21 04:06:08;;;;;;;6.28;2.15;;;;;;;-146.25;88.43;52108.66;2087612;28;20084;-71
2023/05/21 04:07:13;;;;;;;6.07;2.03;;;;;;;-146.25;88.64;52122.88;2096293;28;20901;-71
2023/05/21 04:08:15;;;;;;;6.35;2.05;;;;;;;-146.25;88.88;52120.84;2095736;28;20131;-71
2023/05/21 04:09:17;;;;;;;6.53;2.40;;;;;;;-146.25;88.48;52124.91;2079474;28;20034;-71
2023/05/21 04:10:19;;;;;;;6.60;2.30;;;;;;;-146.25;88.28;52108.66;2079157;28;22168;-70
2023/05/21 04:11:21;;;;;;;6.43;2.17;;;;;;;-146.25;88.48;52147.19;2086994;28;30706;-69
2023/05/21 04:12:23;;;;;;;6.72;2.33;;;;;;;-146.25;88.33;52116.78;2095532;28;27437;-71
2023/05/21 04:13:25;;;;;;;4.72;2.22;;;;;;;-146.25;88.63;52094.47;2095869;28;20161;-71
2023/05/21 04:14:26;;;;;;;6.40;2.42;;;;;;;-146.25;88.16;52137.06;2086694;28;32963;-71
2023/05/21 04:15:28;;;;;;;5.80;2.30;;;;;;;-146.25;88.10;52094.47;2095981;28;23428;-70
2023/05/21 04:16:33;;;;;;;5.25;2.03;;;;;;;-146.25;87.80;52104.63;2087320;28;20045;-71
2023/05/21 04:17:35;;;;;;;3.90;2.03;;;;;;;-146.25;87.86;52149.22;2087927;28;20045;-71
2023/05/21 04:18:36;;;;;;;7.25;2.55;;;;;;;-146.25;88.07;52108.66;2079139;28;20081;-71
2023/05/21 04:19:38;;;;;;;9.00;2.45;;;;;;;-146.25;87.85;52151.25;2087948;28;20042;-71
2023/05/21 04:20:40;;;;;;;5.80;2.33;;;;;;;-146.25;87.37;52155.31;2095639;28;20049;-71
2023/05/21 04:21:43;;;;;;;4.72;2.25;;;;;;;-146.25;87.66;52122.88;2096717;28;20110;-71
2023/05/21 04:22:47;;;;;;;6.00;2.05;;;;;;;-146.25;87.71;52114.75;2087633;28;20046;-71
2023/05/21 04:23:49;;;;;;;6.32;2.40;;;;;;;-146.25;87.73;52112.72;2080040;28;20993;-71
2023/05/21 04:25:05;;;;;;;10.27;2.30;;;;;;;-146.25;88.07;52149.22;2089333;28;20140;-71
2023/05/21 04:26:11;;;;;;;3.70;2.00;;;;;;;-146.25;88.28;52110.69;2088299;28;20042;-71
2023/05/21 04:27:15;;;;;;;5.72;2.22;;;;;;;-146.25;87.99;52128.94;2088340;28;20044;-71
2023/05/21 04:28:18;;;;;;;5.05;2.70;;;;;;;-146.25;88.33;52133.00;2096249;28;20273;-71
2023/05/21 04:29:21;;;;;;;4.88;2.10;;;;;;;-146.25;87.87;52139.09;2095783;28;20136;-71
2023/05/21 04:30:24;;;;;;;5.97;1.98;;;;;;;-146.25;88.07;52139.09;2087703;28;20164;-71
2023/05/21 04:31:27;;;;;;;6.03;2.10;;;;;;;-146.25;88.48;52153.28;2095590;28;20844;-71
2023/05/21 04:32:32;;;;;;;5.82;2.30;;;;;;;-146.25;88.38;52116.78;2087467;28;20038;-71
2023/05/21 04:33:35;;;;;;;6.28;2.20;;;;;;;-146.25;88.35;52118.81;2079581;28;20137;-71
2023/05/21 04:34:38;;;;;;;4.50;2.33;;;;;;;-146.25;89.02;52201.94;2080185;28;20074;-71
2023/05/21 04:35:43;;;;;;;4.18;2.10;;;;;;;-146.25;88.66;52133.00;2095316;28;34608;-71
2023/05/21 04:36:45;;;;;;;8.48;2.17;;;;;;;-146.25;88.92;52088.41;2095104;28;24851;-71
2023/05/21 04:37:47;;;;;;;6.50;2.20;;;;;;;-146.25;89.42;52130.97;2095546;28;20116;-71
2023/05/21 04:38:49;;;;;;;6.40;2.50;;;;;;;-146.25;89.55;52167.47;2087536;28;20053;-72
2023/05/21 04:39:52;;;;;;;7.20;1.77;;;;;;;-146.25;89.32;52114.75;2087016;28;24729;-71
2023/05/21 04:40:55;;;;;;;7.32;2.13;;;;;;;-146.25;89.56;52124.91;2087270;28;26606;-71
2023/05/21 04:41:57;;;;;;;3.97;2.53;;;;;;;-146.25;88.97;52086.38;2096017;28;20036;-71
2023/05/21 04:43:00;;;;;;;4.32;2.17;;;;;;;-146.25;89.02;52147.19;2095824;28;20041;-71
2023/05/21 04:44:02;;;;;;;6.28;2.00;;;;;;;-146.25;88.71;52124.91;2087428;28;20103;-71
2023/05/21 04:45:07;;;;;;;5.40;2.22;;;;;;;-146.25;88.71;52141.13;2087772;28;20188;-71
2023/05/21 04:46:11;;;;;;;7.82;2.10;;;;;;;-146.25;88.66;52137.06;2095170;28;20045;-71
2023/05/21 04:47:13;;;;;;;7.60;2.40;;;;;;;-146.25;88.79;52139.09;2087621;28;20130;-71
2023/05/21 04:48:16;;;;;;;5.15;2.05;;;;;;;-146.25;89.05;52108.66;2095693;28;21003;-71
2023/05/21 04:49:19;;;;;;;3.55;1.90;;;;;;;-146.25;88.68;52143.13;2095210;28;30969;-71
2023/05/21 04:50:22;;;;;;;6.15;2.10;;;;;;;-146.25;88.20;52128.94;2095413;28;26960;-71
2023/05/21 04:51:26;;;;;;;8.80;2.22;;;;;;;-146.25;88.45;52118.81;2095943;28;32290;-71
2023/05/21 04:52:30;;;;;;;5.90;1.88;;;;;;;-146.25;88.76;52094.47;2088970;28;20103;-71